Time;durP1;ratioP1;P1;durP2;ratioP2;P2;SDS_P1;SDS_P2;PMS_P1;PMS_P2;Temp;Humidity;BMP_temperature;BMP_pressure;BME280_temperature;BME280_humidity;BME280_pressure;Samples;Min_cycle;Max_cycle;Signal;HPM_P1;HPM_P2
2022/06/18 00:02:23;;;;;;;6.85;3.40;;;24.20;57.20;;;;;;5033539;28;20059;-69
2022/06/18 00:04:49;;;;;;;6.50;3.22;;;24.20;57.30;;;;;;5041137;28;20362;-69
2022/06/18 00:07:19;;;;;;;7.50;3.38;;;24.10;57.30;;;;;;5037307;28;20021;-69
2022/06/18 00:10:01;;;;;;;8.07;3.75;;;24.10;57.40;;;;;;5044036;28;20021;-69
2022/06/18 00:15:19;;;;;;;7.07;3.40;;;24.10;57.60;;;;;;5045007;28;20041;-69
2022/06/18 00:17:46;;;;;;;8.73;3.53;;;24.10;57.60;;;;;;5050150;28;20029;-69
2022/06/18 00:20:13;;;;;;;6.72;3.33;;;24.10;57.60;;;;;;5044593;28;20094;-69
2022/06/18 00:22:41;;;;;;;8.20;3.33;;;24.10;57.70;;;;;;5048899;28;20025;-69
2022/06/18 00:25:35;;;;;;;5.50;2.75;;;24.00;57.70;;;;;;5023906;28;20090;-68
2022/06/18 00:28:03;;;;;;;6.70;3.47;;;24.00;57.80;;;;;;5052828;28;20497;-68
2022/06/18 00:30:30;;;;;;;8.73;3.47;;;24.00;57.80;;;;;;5040241;28;20021;-68
2022/06/18 00:32:57;;;;;;;6.97;3.15;;;24.00;57.80;;;;;;5047309;28;20076;-68
2022/06/18 00:35:22;;;;;;;6.78;3.20;;;24.00;57.80;;;;;;5021377;28;20033;-68
2022/06/18 00:37:53;;;;;;;6.72;3.08;;;23.90;57.80;;;;;;5037532;28;20025;-68
2022/06/18 00:40:29;;;;;;;8.13;3.25;;;24.00;57.90;;;;;;5023287;28;20124;-68
2022/06/18 00:42:59;;;;;;;6.18;3.00;;;23.90;57.80;;;;;;5033779;28;20040;-68
2022/06/18 00:45:28;;;;;;;7.28;3.45;;;23.90;57.90;;;;;;5045332;28;20125;-69
2022/06/18 00:48:06;;;;;;;7.53;3.50;;;23.90;57.90;;;;;;5041928;28;20057;-69
2022/06/18 00:50:56;;;;;;;6.57;3.35;;;23.90;57.90;;;;;;5037215;28;20049;-69
2022/06/18 00:53:29;;;;;;;7.05;3.65;;;23.90;57.90;;;;;;5038970;28;20452;-69
2022/06/18 00:56:04;;;;;;;6.47;3.38;;;23.90;58.10;;;;;;5036728;28;20048;-69
2022/06/18 00:58:43;;;;;;;5.80;3.22;;;23.90;58.20;;;;;;5046780;28;20029;-68
2022/06/18 01:01:16;;;;;;;8.68;3.60;;;23.80;58.20;;;;;;5052137;28;20033;-69
2022/06/18 01:03:44;;;;;;;7.55;3.33;;;23.80;58.30;;;;;;5048761;28;20473;-69
2022/06/18 01:06:32;;;;;;;7.07;3.60;;;23.70;58.20;;;;;;5031690;28;20025;-69
2022/06/18 01:09:10;;;;;;;7.50;3.80;;;23.80;58.20;;;;;;5043563;28;20029;-69
2022/06/18 01:11:39;;;;;;;9.00;3.20;;;23.70;58.30;;;;;;5020083;28;20075;-69
2022/06/18 01:14:10;;;;;;;6.20;3.30;;;23.70;58.30;;;;;;5037984;28;20049;-69
2022/06/18 01:16:37;;;;;;;8.02;3.28;;;23.70;58.40;;;;;;5029274;28;20125;-68
2022/06/18 01:19:15;;;;;;;7.18;3.67;;;23.70;58.50;;;;;;5038843;28;20025;-69
2022/06/18 01:21:59;;;;;;;6.63;3.67;;;23.70;58.60;;;;;;5038460;28;20040;-69
2022/06/18 01:24:39;;;;;;;6.40;3.55;;;23.60;58.60;;;;;;5033106;28;20061;-69
2022/06/18 01:27:08;;;;;;;7.43;3.67;;;23.60;58.70;;;;;;5034438;28;20013;-69
2022/06/18 01:29:35;;;;;;;6.85;3.55;;;23.60;58.70;;;;;;5042019;28;20013;-68
2022/06/18 01:32:01;;;;;;;7.63;3.63;;;23.60;58.80;;;;;;5045838;28;20029;-69
2022/06/18 01:34:28;;;;;;;7.20;3.53;;;23.60;58.90;;;;;;5049854;28;20373;-69
2022/06/18 01:37:00;;;;;;;8.10;3.60;;;23.50;58.90;;;;;;5034482;28;20025;-69
2022/06/18 01:39:32;;;;;;;10.25;3.70;;;23.50;59.00;;;;;;5039500;28;20025;-69
2022/06/18 01:42:26;;;;;;;5.55;3.20;;;23.50;59.10;;;;;;5029716;28;20022;-69
2022/06/18 01:45:03;;;;;;;7.00;3.50;;;23.50;59.10;;;;;;5043576;28;20041;-69
2022/06/18 01:47:44;;;;;;;7.38;3.60;;;23.50;59.10;;;;;;5043187;28;20047;-69
2022/06/18 01:50:12;;;;;;;7.63;3.65;;;23.50;59.20;;;;;;5042609;28;20028;-69
2022/06/18 01:52:46;;;;;;;7.50;3.78;;;23.50;59.90;;;;;;5026433;28;20072;-69
2022/06/18 01:55:24;;;;;;;6.10;3.53;;;23.40;59.30;;;;;;5048521;28;20474;-69
2022/06/18 01:57:56;;;;;;;8.13;3.67;;;23.40;59.40;;;;;;5056596;28;20030;-69
2022/06/18 02:00:25;;;;;;;6.63;3.60;;;23.40;59.50;;;;;;5035810;28;20024;-69
2022/06/18 02:03:00;;;;;;;6.45;3.40;;;23.40;59.60;;;;;;5032061;28;20107;-69
2022/06/18 02:05:26;;;;;;;7.07;3.67;;;23.40;59.50;;;;;;5032179;28;20071;-69
2022/06/18 02:07:52;;;;;;;6.68;3.78;;;23.40;60.20;;;;;;5033125;28;20040;-69
2022/06/18 02:10:27;;;;;;;7.75;3.78;;;23.40;59.70;;;;;;5037838;28;20147;-68
2022/06/18 02:12:58;;;;;;;7.20;3.63;;;23.30;59.70;;;;;;5037423;28;20030;-68
2022/06/18 02:15:29;;;;;;;6.43;3.50;;;23.30;59.80;;;;;;5052750;28;20037;-68
2022/06/18 02:17:58;;;;;;;7.35;4.00;;;23.30;59.80;;;;;;5043178;28;20032;-68
2022/06/18 02:20:27;;;;;;;6.78;3.40;;;23.30;59.90;;;;;;5044637;28;20024;-68
2022/06/18 02:22:55;;;;;;;9.07;4.03;;;23.30;59.90;;;;;;5042693;28;20089;-68
2022/06/18 02:25:25;;;;;;;6.97;3.80;;;23.30;60.70;;;;;;5053697;28;20041;-68
2022/06/18 02:28:09;;;;;;;7.25;3.65;;;23.30;60.10;;;;;;5020579;28;20017;-69
2022/06/18 02:30:36;;;;;;;7.35;4.18;;;23.20;60.10;;;;;;5046006;28;20062;-68
2022/06/18 02:33:28;;;;;;;7.97;3.88;;;23.20;60.20;;;;;;5036848;28;20014;-68
2022/06/18 02:35:57;;;;;;;7.03;3.75;;;23.20;60.30;;;;;;5043577;28;20035;-68
2022/06/18 02:38:22;;;;;;;6.53;3.83;;;23.20;60.40;;;;;;5034168;28;20038;-68
2022/06/18 02:40:49;;;;;;;9.57;4.72;;;23.20;60.50;;;;;;5040729;28;20040;-68
2022/06/18 02:43:18;;;;;;;7.80;4.47;;;23.10;60.50;;;;;;5039890;28;20378;-67
2022/06/18 02:45:47;;;;;;;6.95;4.65;;;23.10;60.70;;;;;;5045468;28;20520;-67
2022/06/18 02:48:12;;;;;;;8.32;4.90;;;23.10;60.80;;;;;;5046763;28;20115;-67
2022/06/18 02:50:42;;;;;;;7.93;4.93;;;23.10;60.90;;;;;;5044979;28;20068;-67
2022/06/18 02:53:11;;;;;;;7.50;4.40;;;23.10;61.10;;;;;;5040177;28;20554;-68
2022/06/18 02:55:39;;;;;;;8.43;4.53;;;23.00;61.30;;;;;;5055565;28;20334;-67
2022/06/18 02:58:17;;;;;;;7.30;4.30;;;23.00;61.40;;;;;;5055247;28;20025;-68
2022/06/18 03:00:46;;;;;;;8.25;4.80;;;23.00;61.60;;;;;;5041661;28;20025;-68
2022/06/18 03:03:14;;;;;;;8.02;4.68;;;23.00;61.60;;;;;;5044186;28;20081;-67
2022/06/18 03:05:40;;;;;;;7.82;5.10;;;22.90;61.70;;;;;;5034126;28;20432;-68
2022/06/18 03:08:07;;;;;;;8.15;4.43;;;22.90;61.70;;;;;;5034024;28;20021;-68
2022/06/18 03:13:20;;;;;;;8.98;4.63;;;22.90;61.90;;;;;;5054853;28;20041;-68
2022/06/18 03:15:50;;;;;;;8.18;5.45;;;22.90;61.90;;;;;;5046125;28;20025;-69
2022/06/18 03:18:17;;;;;;;8.70;4.70;;;22.90;62.10;;;;;;5028120;28;20458;-68
2022/06/18 03:21:09;;;;;;;7.90;5.07;;;22.80;62.10;;;;;;5039532;28;20020;-68
2022/06/18 03:23:38;;;;;;;8.65;5.15;;;22.90;62.10;;;;;;5044292;28;20144;-69
2022/06/18 03:26:03;;;;;;;9.23;4.97;;;22.80;62.10;;;;;;5033238;28;20112;-68
2022/06/18 03:28:29;;;;;;;7.75;4.78;;;22.80;62.20;;;;;;5030255;28;20438;-68
2022/06/18 03:30:55;;;;;;;9.80;5.10;;;22.80;62.30;;;;;;5048357;28;20029;-68
2022/06/18 03:33:21;;;;;;;8.52;5.30;;;22.80;62.40;;;;;;5047998;28;20028;-69
2022/06/18 03:35:50;;;;;;;10.50;5.20;;;22.80;62.50;;;;;;5054398;28;20029;-68
2022/06/18 03:38:16;;;;;;;9.95;5.32;;;22.80;62.60;;;;;;5048623;28;20025;-68
2022/06/18 03:40:44;;;;;;;8.73;5.25;;;22.80;62.60;;;;;;5039323;28;20377;-69
2022/06/18 03:43:12;;;;;;;9.80;5.40;;;22.80;62.60;;;;;;5033733;28;20021;-69
2022/06/18 03:45:43;;;;;;;8.95;5.20;;;22.80;62.70;;;;;;5049665;28;20371;-68
2022/06/18 03:48:22;;;;;;;7.80;4.97;;;22.70;62.70;;;;;;5050033;28;20058;-68
2022/06/18 03:50:49;;;;;;;9.27;5.40;;;22.80;62.90;;;;;;5055030;28;20021;-68
2022/06/18 03:53:14;;;;;;;9.15;5.43;;;22.70;62.80;;;;;;5048021;28;20339;-68
2022/06/18 03:55:40;;;;;;;9.85;5.63;;;22.80;63.00;;;;;;5046180;28;20083;-68
2022/06/18 03:58:07;;;;;;;9.23;5.90;;;22.80;63.00;;;;;;5042812;28;20067;-68
2022/06/18 04:00:34;;;;;;;11.35;5.80;;;22.80;62.90;;;;;;5025915;28;20064;-68
2022/06/18 04:02:59;;;;;;;8.77;5.80;;;22.80;63.00;;;;;;5041009;28;20021;-68
2022/06/18 04:05:25;;;;;;;9.35;5.70;;;22.80;63.00;;;;;;5019809;28;20026;-68
2022/06/18 04:07:51;;;;;;;9.23;5.65;;;22.80;63.10;;;;;;5046841;28;20044;-69
2022/06/18 04:10:38;;;;;;;9.57;5.93;;;22.80;63.10;;;;;;5039172;28;20087;-68
2022/06/18 04:13:04;;;;;;;12.55;5.82;;;22.70;63.10;;;;;;5039498;28;20042;-68
2022/06/18 04:15:53;;;;;;;9.57;5.68;;;22.70;63.10;;;;;;5040579;28;20026;-68
2022/06/18 04:18:29;;;;;;;9.00;6.13;;;22.80;63.10;;;;;;5039982;28;20055;-68
2022/06/18 04:20:57;;;;;;;8.73;5.88;;;22.80;63.00;;;;;;5040907;28;20028;-68
2022/06/18 04:23:24;;;;;;;9.20;5.93;;;22.80;63.00;;;;;;5034751;28;20516;-68
2022/06/18 04:25:50;;;;;;;9.25;5.70;;;22.90;63.00;;;;;;5023041;28;20449;-68
2022/06/18 04:28:18;;;;;;;9.40;6.28;;;22.80;62.90;;;;;;5034760;28;20021;-68
2022/06/18 04:30:52;;;;;;;8.82;6.40;;;22.90;63.00;;;;;;5038976;28;20025;-69
2022/06/18 04:33:26;;;;;;;9.68;6.53;;;22.90;63.00;;;;;;5021050;28;20030;-68
2022/06/18 04:35:57;;;;;;;8.82;6.13;;;22.90;63.00;;;;;;5042871;28;20028;-68
2022/06/18 04:38:25;;;;;;;8.85;6.53;;;22.90;63.00;;;;;;5028209;28;20028;-68
2022/06/18 04:41:22;;;;;;;9.50;6.45;;;23.00;63.00;;;;;;5009666;28;20100;-68
2022/06/18 04:43:55;;;;;;;10.63;7.10;;;23.00;62.90;;;;;;5012973;28;20088;-68
2022/06/18 04:46:22;;;;;;;8.95;6.97;;;23.00;63.00;;;;;;4997856;28;20044;-68
2022/06/18 04:48:51;;;;;;;9.52;6.55;;;23.00;63.10;;;;;;4997020;28;20088;-68
2022/06/18 04:51:17;;;;;;;10.88;6.60;;;23.00;63.10;;;;;;5013672;28;20453;-68
2022/06/18 04:53:43;;;;;;;12.18;7.55;;;23.10;63.70;;;;;;4969716;28;20022;-68
2022/06/18 04:56:10;;;;;;;12.57;7.45;;;23.10;63.00;;;;;;5014166;28;20034;-68
2022/06/18 04:58:39;;;;;;;10.02;7.47;;;23.10;63.00;;;;;;5012499;28;20034;-68
2022/06/18 05:01:05;;;;;;;12.60;7.65;;;23.10;62.90;;;;;;5014228;28;20106;-68
2022/06/18 05:03:41;;;;;;;14.43;7.95;;;23.20;62.80;;;;;;5004448;28;20073;-71
2022/06/18 05:06:26;;;;;;;11.27;7.63;;;23.20;62.70;;;;;;4997384;28;20029;-71
2022/06/18 05:09:11;;;;;;;12.57;7.80;;;23.30;62.60;;;;;;5009118;28;20041;-70
2022/06/18 05:12:08;;;;;;;12.63;8.00;;;23.30;62.50;;;;;;4997101;28;20060;-70
2022/06/18 05:14:45;;;;;;;9.32;7.28;;;23.60;62.00;;;;;;5007403;28;20053;-70
2022/06/18 05:17:21;;;;;;;11.20;8.75;;;23.70;61.70;;;;;;5011439;28;20045;-70
2022/06/18 05:19:48;;;;;;;12.82;9.05;;;23.80;61.60;;;;;;5034014;28;20031;-71
2022/06/18 05:22:15;;;;;;;13.65;9.80;;;23.90;61.40;;;;;;5030590;28;20081;-69
2022/06/18 05:24:40;;;;;;;12.07;8.93;;;23.80;61.20;;;;;;5040634;28;20388;-70
2022/06/18 05:27:25;;;;;;;12.50;9.55;;;23.90;61.20;;;;;;5045047;28;20021;-71
2022/06/18 05:29:51;;;;;;;12.68;9.27;;;23.90;61.10;;;;;;5048201;28;20122;-70
2022/06/18 05:32:18;;;;;;;13.15;8.68;;;23.90;60.90;;;;;;5022308;28;20370;-71
2022/06/18 05:34:44;;;;;;;12.18;8.18;;;24.00;60.80;;;;;;5038172;28;20639;-70
2022/06/18 05:37:22;;;;;;;10.75;7.85;;;24.10;60.70;;;;;;5040297;28;20021;-70
2022/06/18 05:39:48;;;;;;;11.90;8.45;;;24.10;60.70;;;;;;5049480;28;20020;-71
2022/06/18 05:42:14;;;;;;;11.73;7.93;;;24.20;60.60;;;;;;5022378;28;20029;-70
2022/06/18 05:44:39;;;;;;;12.52;7.68;;;24.20;60.50;;;;;;5035683;28;20059;-69
2022/06/18 05:47:18;;;;;;;12.80;7.68;;;24.20;60.50;;;;;;5020456;28;20415;-70
2022/06/18 05:49:44;;;;;;;11.90;7.40;;;24.30;60.40;;;;;;5037660;28;20086;-70
2022/06/18 05:52:10;;;;;;;10.88;7.82;;;24.30;60.20;;;;;;5042557;28;20431;-70
2022/06/18 05:54:36;;;;;;;11.32;7.75;;;24.40;60.10;;;;;;5043001;28;20024;-70
2022/06/18 05:57:28;;;;;;;10.57;6.90;;;24.40;60.10;;;;;;5028267;28;20078;-70
2022/06/18 06:00:13;;;;;;;11.20;7.80;;;24.50;60.00;;;;;;5048085;28;20021;-70
2022/06/18 06:02:39;;;;;;;13.57;7.55;;;24.50;59.90;;;;;;5053860;28;20060;-70
2022/06/18 06:05:05;;;;;;;10.00;6.78;;;24.60;59.80;;;;;;5053131;28;20059;-70
2022/06/18 06:07:32;;;;;;;11.13;6.53;;;24.70;59.60;;;;;;5029893;28;20371;-70
2022/06/18 06:12:42;;;;;;;11.27;7.00;;;24.90;59.40;;;;;;5036852;28;20037;-70
2022/06/18 06:15:08;;;;;;;9.88;6.63;;;25.00;59.20;;;;;;5029861;28;20033;-71
2022/06/18 06:17:34;;;;;;;11.57;6.93;;;25.10;59.00;;;;;;5036638;28;20033;-71
2022/06/18 06:20:07;;;;;;;12.27;6.60;;;25.10;58.70;;;;;;5051066;28;20028;-70
2022/06/18 06:22:34;;;;;;;11.00;6.10;;;25.20;58.50;;;;;;5042941;28;20030;-67
2022/06/18 06:25:00;;;;;;;9.75;6.57;;;25.30;58.40;;;;;;5047147;28;20044;-68
2022/06/18 06:27:25;;;;;;;13.55;7.13;;;25.30;58.30;;;;;;5039045;28;20131;-68
2022/06/18 06:29:51;;;;;;;11.00;6.47;;;25.30;58.10;;;;;;5046983;28;20455;-68
2022/06/18 06:32:16;;;;;;;9.40;6.25;;;25.40;58.10;;;;;;5049768;28;20475;-69
2022/06/18 06:34:42;;;;;;;11.40;6.90;;;25.50;58.00;;;;;;5022399;28;20404;-68
2022/06/18 06:37:08;;;;;;;12.07;6.45;;;25.60;58.00;;;;;;5040519;28;20120;-68
2022/06/18 06:39:34;;;;;;;10.98;7.47;;;25.70;57.90;;;;;;5052962;28;20029;-68
2022/06/18 06:41:59;;;;;;;12.88;7.75;;;25.70;57.70;;;;;;5044798;28;20537;-68
2022/06/18 06:44:26;;;;;;;10.85;7.28;;;25.80;57.60;;;;;;5041873;28;20032;-68
2022/06/18 06:46:52;;;;;;;10.38;7.35;;;25.90;57.60;;;;;;5048629;28;20021;-68
2022/06/18 06:49:18;;;;;;;12.43;6.38;;;25.90;57.50;;;;;;5042736;28;20033;-68
2022/06/18 06:51:43;;;;;;;10.68;7.45;;;26.00;57.60;;;;;;5045374;28;20056;-68
2022/06/18 06:54:09;;;;;;;13.63;6.68;;;26.10;57.40;;;;;;5040753;28;20108;-68
2022/06/18 06:59:19;;;;;;;10.50;6.35;;;26.40;57.00;;;;;;5040993;28;20037;-68
2022/06/18 07:01:45;;;;;;;12.50;7.38;;;26.50;57.00;;;;;;5038084;28;20028;-67
2022/06/18 07:04:12;;;;;;;10.35;7.32;;;26.50;56.90;;;;;;5044462;28;20405;-68
2022/06/18 07:06:38;;;;;;;11.25;6.97;;;26.60;56.60;;;;;;5048463;28;20040;-68
2022/06/18 07:09:05;;;;;;;12.52;7.38;;;26.60;56.50;;;;;;5040943;28;20030;-72
2022/06/18 07:11:33;;;;;;;11.77;6.78;;;26.70;56.20;;;;;;5034316;28;20025;-67
2022/06/18 07:13:59;;;;;;;10.60;6.60;;;26.80;56.20;;;;;;5027695;28;20037;-67
2022/06/18 07:16:25;;;;;;;12.38;7.45;;;26.90;56.10;;;;;;5051898;28;20028;-67
2022/06/18 07:18:53;;;;;;;12.82;7.15;;;27.00;56.00;;;;;;5048583;28;20021;-68
2022/06/18 07:21:19;;;;;;;10.18;6.43;;;27.00;55.90;;;;;;5046181;28;20025;-66
2022/06/18 07:23:45;;;;;;;12.95;6.60;;;27.10;55.80;;;;;;5041430;28;20163;-67
2022/06/18 07:26:15;;;;;;;12.55;6.60;;;27.20;55.80;;;;;;5042375;28;20116;-67
2022/06/18 07:28:42;;;;;;;10.83;6.27;;;27.30;55.60;;;;;;5027139;28;20442;-67
2022/06/18 07:31:14;;;;;;;12.40;7.18;;;27.40;55.50;;;;;;5044003;28;20276;-67
2022/06/18 07:33:40;;;;;;;11.23;6.75;;;27.50;55.20;;;;;;5038971;28;20030;-67
2022/06/18 07:36:06;;;;;;;11.80;7.10;;;27.50;54.90;;;;;;5036685;28;20025;-66
2022/06/18 07:38:32;;;;;;;14.27;7.38;;;27.60;54.90;;;;;;5018639;28;20040;-67
2022/06/18 07:40:58;;;;;;;12.32;6.82;;;27.60;54.80;;;;;;5036785;28;20037;-67
2022/06/18 07:43:34;;;;;;;13.38;6.95;;;27.70;54.80;;;;;;5038413;28;20035;-67
2022/06/18 07:46:02;;;;;;;10.98;6.68;;;27.70;54.70;;;;;;5018540;28;20032;-67
2022/06/18 07:48:27;;;;;;;12.43;6.60;;;27.70;54.60;;;;;;5035425;28;20040;-67
2022/06/18 07:50:53;;;;;;;10.73;6.05;;;27.80;55.20;;;;;;5034988;28;20338;-66
2022/06/18 07:53:22;;;;;;;11.48;6.10;;;27.90;54.60;;;;;;5042211;28;20033;-66
2022/06/18 07:55:48;;;;;;;12.05;5.82;;;28.00;54.60;;;;;;5042058;28;20043;-67
2022/06/18 07:58:14;;;;;;;14.52;6.72;;;28.20;54.30;;;;;;5040144;28;20033;-66
2022/06/18 08:00:42;;;;;;;11.02;6.30;;;28.30;54.00;;;;;;5039937;28;20492;-66
2022/06/18 08:03:10;;;;;;;13.30;6.05;;;28.40;53.90;;;;;;5035938;28;20111;-66
2022/06/18 08:05:35;;;;;;;11.43;6.88;;;28.40;53.80;;;;;;5038671;28;20038;-66
2022/06/18 08:08:01;;;;;;;10.25;6.25;;;28.50;53.70;;;;;;5054837;28;20079;-66
2022/06/18 08:10:27;;;;;;;9.48;5.55;;;28.70;53.60;;;;;;5049606;28;20199;-66
2022/06/18 08:12:54;;;;;;;10.90;5.65;;;28.80;53.50;;;;;;5055439;28;22012;-66
2022/06/18 08:15:20;;;;;;;11.43;5.43;;;28.90;53.20;;;;;;5041599;28;20032;-66
2022/06/18 08:17:45;;;;;;;9.80;5.32;;;29.00;53.00;;;;;;5051627;28;20434;-67
2022/06/18 08:20:11;;;;;;;9.98;5.60;;;29.00;52.70;;;;;;5040297;28;20154;-66
2022/06/18 08:22:41;;;;;;;14.35;5.35;;;29.10;52.50;;;;;;5042978;28;20025;-67
2022/06/18 08:25:08;;;;;;;11.07;5.45;;;29.20;52.40;;;;;;5046508;28;20025;-67
2022/06/18 08:27:35;;;;;;;12.25;5.78;;;29.30;52.30;;;;;;5038324;28;20465;-67
2022/06/18 08:30:01;;;;;;;9.05;5.22;;;29.30;52.20;;;;;;5037864;28;20033;-67
2022/06/18 08:32:26;;;;;;;13.00;5.85;;;29.40;52.10;;;;;;5038323;28;20037;-67
2022/06/18 08:34:52;;;;;;;9.45;5.13;;;29.40;52.10;;;;;;5040435;28;20550;-67
2022/06/18 08:37:18;;;;;;;9.73;4.53;;;29.50;52.00;;;;;;5019478;28;20042;-66
2022/06/18 08:39:43;;;;;;;10.30;5.28;;;29.50;52.00;;;;;;5038825;28;20413;-67
2022/06/18 08:42:44;;;;;;;11.20;5.05;;;29.60;51.70;;;;;;5038273;28;20213;-67
2022/06/18 08:45:31;;;;;;;8.93;4.38;;;29.60;51.60;;;;;;5032566;28;20037;-67
2022/06/18 08:48:26;;;;;;;12.88;4.43;;;29.80;51.90;;;;;;5020735;28;20033;-67
2022/06/18 08:51:00;;;;;;;10.43;4.75;;;29.90;51.70;;;;;;5033417;28;20028;-67
2022/06/18 08:53:45;;;;;;;8.50;4.57;;;30.00;51.30;;;;;;5020293;28;20025;-67
2022/06/18 08:56:35;;;;;;;10.35;5.15;;;30.10;51.20;;;;;;5041062;28;20343;-68
2022/06/18 08:59:16;;;;;;;8.40;4.80;;;30.20;50.80;;;;;;5047818;28;20049;-68
2022/06/18 09:02:01;;;;;;;8.48;5.03;;;30.40;51.00;;;;;;5017032;28;20148;-68
2022/06/18 09:04:48;;;;;;;11.55;4.78;;;30.40;51.20;;;;;;5033861;28;20041;-68
2022/06/18 09:07:26;;;;;;;9.27;4.22;;;30.40;50.50;;;;;;5035719;28;20029;-68
2022/06/18 09:09:57;;;;;;;11.30;4.72;;;30.50;50.40;;;;;;5035260;28;20022;-68
2022/06/18 09:12:35;;;;;;;12.00;4.57;;;30.60;50.30;;;;;;5040344;28;20423;-68
2022/06/18 09:15:09;;;;;;;9.10;4.55;;;30.70;50.30;;;;;;5047647;28;20134;-68
2022/06/18 09:17:59;;;;;;;10.10;4.43;;;30.70;50.20;;;;;;5040052;28;20029;-68
2022/06/18 09:20:43;;;;;;;10.80;4.85;;;30.90;50.10;;;;;;5043473;28;20484;-66
2022/06/18 09:23:28;;;;;;;9.55;4.15;;;30.90;50.10;;;;;;5034555;28;20352;-66
2022/06/18 09:25:57;;;;;;;8.88;4.30;;;31.00;50.00;;;;;;5038580;28;20052;-66
2022/06/18 09:28:47;;;;;;;8.75;4.47;;;31.20;49.80;;;;;;5034824;28;20032;-67
2022/06/18 09:31:18;;;;;;;7.53;4.38;;;31.20;49.50;;;;;;5049505;28;20029;-66
2022/06/18 09:33:58;;;;;;;10.70;4.78;;;31.40;49.30;;;;;;5045811;28;20036;-66
2022/06/18 09:36:30;;;;;;;9.10;3.90;;;31.50;49.20;;;;;;5041412;28;20447;-68
2022/06/18 09:39:02;;;;;;;9.98;4.53;;;31.60;49.10;;;;;;5031536;28;20370;-68
2022/06/18 09:41:37;;;;;;;9.27;4.60;;;31.60;48.90;;;;;;5039025;28;20041;-67
2022/06/18 09:44:35;;;;;;;12.25;5.40;;;31.70;49.40;;;;;;5053350;28;20148;-67
2022/06/18 09:47:25;;;;;;;9.80;4.60;;;31.70;48.50;;;;;;5047599;28;20037;-67
2022/06/18 09:49:50;;;;;;;9.50;4.57;;;31.60;48.30;;;;;;5053743;28;20033;-67
2022/06/18 09:52:32;;;;;;;10.20;4.43;;;31.70;48.20;;;;;;5048937;28;20445;-67
2022/06/18 09:55:12;;;;;;;9.70;4.30;;;31.70;47.90;;;;;;5040906;28;20033;-67
2022/06/18 09:57:42;;;;;;;8.85;4.45;;;31.70;47.60;;;;;;5047961;28;20135;-68
2022/06/18 10:00:13;;;;;;;9.95;4.72;;;31.80;47.20;;;;;;5037801;28;20076;-67
2022/06/18 10:03:09;;;;;;;13.90;4.47;;;31.90;47.60;;;;;;5044063;28;20043;-67
2022/06/18 10:08:28;;;;;;;9.60;4.30;;;32.00;46.60;;;;;;5038208;28;20055;-67
2022/06/18 10:11:07;;;;;;;7.18;3.60;;;32.00;46.40;;;;;;5049317;28;20442;-68
2022/06/18 10:13:40;;;;;;;9.13;4.00;;;32.00;46.20;;;;;;5035451;28;20132;-67
2022/06/18 10:16:22;;;;;;;12.00;4.03;;;32.10;46.10;;;;;;5050759;28;20043;-68
2022/06/18 10:19:01;;;;;;;12.48;3.67;;;32.10;45.60;;;;;;5045418;28;20474;-68
2022/06/18 10:22:03;;;;;;;9.82;4.28;;;32.20;45.40;;;;;;5051799;28;20042;-68
2022/06/18 10:24:47;;;;;;;8.80;3.28;;;32.20;45.00;;;;;;5037205;28;20091;-67
2022/06/18 10:27:25;;;;;;;7.50;3.53;;;32.20;45.10;;;;;;5043776;28;20061;-67
2022/06/18 10:30:06;;;;;;;8.20;3.88;;;32.20;44.90;;;;;;5050412;28;20070;-67
2022/06/18 10:32:52;;;;;;;8.48;3.50;;;32.30;45.00;;;;;;5042205;28;20025;-67
2022/06/18 10:35:47;;;;;;;9.30;3.90;;;32.30;44.90;;;;;;5042985;28;20097;-67
2022/06/18 10:38:23;;;;;;;8.00;3.78;;;32.40;45.10;;;;;;5041279;28;20071;-67
2022/06/18 10:41:18;;;;;;;6.78;3.25;;;32.50;45.20;;;;;;5051282;28;20366;-67
2022/06/18 10:44:23;;;;;;;10.10;3.90;;;32.50;45.10;;;;;;5052731;28;20082;-67
2022/06/18 10:47:05;;;;;;;8.82;3.92;;;32.70;45.10;;;;;;4988028;28;20455;-66
2022/06/18 10:49:31;;;;;;;9.25;4.40;;;32.80;45.10;;;;;;5001258;28;20038;-66
2022/06/18 10:51:58;;;;;;;8.00;3.97;;;32.90;45.10;;;;;;4997976;28;20034;-67
2022/06/18 10:54:31;;;;;;;9.60;4.43;;;32.90;45.20;;;;;;5012594;28;20121;-67
2022/06/18 10:56:57;;;;;;;10.40;4.40;;;32.90;45.00;;;;;;5008215;28;20038;-66
2022/06/18 10:59:37;;;;;;;9.40;4.47;;;32.90;45.00;;;;;;5010178;28;20518;-66
2022/06/18 11:02:09;;;;;;;8.77;4.18;;;32.90;45.00;;;;;;5011550;28;20364;-67
2022/06/18 11:04:36;;;;;;;8.25;4.07;;;33.00;45.10;;;;;;5013052;28;20075;-67
2022/06/18 11:07:05;;;;;;;8.90;4.07;;;33.00;45.10;;;;;;4996053;28;20030;-67
2022/06/18 11:09:52;;;;;;;9.65;3.95;;;33.00;45.20;;;;;;5007945;28;20366;-67
2022/06/18 11:12:27;;;;;;;10.48;4.25;;;33.00;45.00;;;;;;4997404;28;20076;-67
2022/06/18 11:14:55;;;;;;;9.95;4.30;;;33.10;44.70;;;;;;4973948;28;20050;-67
2022/06/18 11:17:30;;;;;;;10.63;4.20;;;33.00;44.50;;;;;;5007474;28;20034;-67
2022/06/18 11:20:15;;;;;;;7.90;3.80;;;33.00;44.70;;;;;;4999223;28;20033;-67
2022/06/18 11:22:41;;;;;;;10.02;4.47;;;33.00;44.70;;;;;;5034002;28;21033;-67
2022/06/18 11:25:24;;;;;;;10.02;4.32;;;33.00;44.70;;;;;;5044600;28;20094;-67
2022/06/18 11:27:51;;;;;;;10.20;4.13;;;33.00;44.50;;;;;;5064061;28;20103;-67
2022/06/18 11:30:46;;;;;;;12.60;4.28;;;33.00;44.40;;;;;;5036701;28;20120;-67
2022/06/18 11:33:37;;;;;;;8.98;4.35;;;33.00;44.10;;;;;;5031495;28;20036;-67
2022/06/18 11:36:14;;;;;;;8.50;4.05;;;33.00;44.30;;;;;;5036778;28;20028;-67
2022/06/18 11:38:50;;;;;;;8.80;3.70;;;33.00;44.20;;;;;;5043668;28;20033;-67
2022/06/18 11:41:30;;;;;;;9.18;3.85;;;33.00;44.30;;;;;;5042621;28;20044;-67
2022/06/18 11:44:16;;;;;;;9.00;4.05;;;33.00;44.00;;;;;;5019865;28;20526;-67
2022/06/18 11:46:54;;;;;;;10.63;3.63;;;33.00;43.70;;;;;;5036566;28;20156;-67
2022/06/18 11:49:48;;;;;;;9.18;3.75;;;33.00;43.60;;;;;;5037892;28;20403;-67
2022/06/18 11:52:39;;;;;;;11.10;4.05;;;32.90;43.90;;;;;;5037697;28;20124;-67
2022/06/18 11:55:21;;;;;;;8.55;3.95;;;32.90;43.60;;;;;;5049434;28;20102;-68
2022/06/18 11:58:09;;;;;;;8.65;3.83;;;32.80;43.60;;;;;;5050524;28;20025;-67
2022/06/18 12:01:11;;;;;;;11.27;3.67;;;32.70;43.50;;;;;;5051702;28;20021;-67
2022/06/18 12:03:42;;;;;;;8.20;3.92;;;32.60;43.50;;;;;;5044507;28;20034;-67
2022/06/18 12:06:12;;;;;;;9.90;3.70;;;32.50;43.50;;;;;;5035479;28;20091;-67
2022/06/18 12:08:40;;;;;;;10.93;4.22;;;32.40;43.60;;;;;;5051993;28;20033;-67
2022/06/18 12:11:30;;;;;;;9.13;3.63;;;32.40;43.60;;;;;;5050748;28;20079;-67
2022/06/18 12:14:12;;;;;;;10.38;3.75;;;32.40;43.80;;;;;;5047580;28;20049;-67
2022/06/18 12:16:50;;;;;;;9.75;3.80;;;32.30;43.80;;;;;;5053494;28;20365;-66
2022/06/18 12:19:44;;;;;;;11.27;3.92;;;32.20;44.00;;;;;;5047710;28;20037;-66
2022/06/18 12:22:35;;;;;;;8.95;4.03;;;32.10;43.70;;;;;;5053563;28;20013;-67
2022/06/18 12:25:19;;;;;;;11.45;4.65;;;32.10;44.10;;;;;;5048647;28;20056;-68
2022/06/18 12:27:51;;;;;;;9.27;4.07;;;32.10;44.00;;;;;;5040250;28;20053;-66
2022/06/18 12:30:32;;;;;;;9.20;3.40;;;32.00;43.90;;;;;;5051490;28;20037;-66
2022/06/18 12:33:17;;;;;;;8.65;3.63;;;32.00;44.10;;;;;;5053511;28;20044;-66
2022/06/18 12:36:05;;;;;;;7.40;3.60;;;32.00;44.20;;;;;;5041153;28;20459;-67
2022/06/18 12:39:01;;;;;;;8.45;4.28;;;31.90;44.20;;;;;;5043369;28;20037;-66
2022/06/18 12:41:41;;;;;;;8.35;3.78;;;31.80;44.40;;;;;;5037131;28;20040;-66
2022/06/18 12:44:27;;;;;;;10.07;4.35;;;31.80;44.60;;;;;;5045885;28;20044;-65
2022/06/18 12:47:21;;;;;;;8.32;3.70;;;31.70;44.70;;;;;;5049577;28;20047;-66
2022/06/18 12:50:02;;;;;;;12.45;4.50;;;31.60;45.50;;;;;;5050050;28;20104;-66
2022/06/18 12:52:37;;;;;;;8.60;3.85;;;31.60;45.00;;;;;;5046999;28;20040;-66
2022/06/18 12:55:14;;;;;;;9.32;4.28;;;31.60;45.30;;;;;;5036110;28;20056;-66
2022/06/18 12:57:53;;;;;;;8.48;3.78;;;31.60;45.40;;;;;;5045307;28;20044;-66
2022/06/18 13:00:31;;;;;;;11.60;4.35;;;31.70;45.60;;;;;;5052080;28;20415;-66
2022/06/18 13:03:16;;;;;;;8.38;4.00;;;31.70;45.60;;;;;;5055290;28;20465;-67
2022/06/18 13:05:54;;;;;;;8.75;3.80;;;31.60;45.20;;;;;;5050908;28;20029;-67
2022/06/18 13:08:45;;;;;;;9.93;4.40;;;31.60;45.40;;;;;;5044517;28;20029;-67
2022/06/18 13:11:17;;;;;;;11.60;4.28;;;31.60;45.60;;;;;;5052947;28;20036;-67
2022/06/18 13:13:58;;;;;;;9.85;4.18;;;31.50;45.60;;;;;;5046781;28;20095;-67
2022/06/18 13:16:29;;;;;;;;;;;31.50;45.90;;;;;;5028656;28;20433;-66
2022/06/18 13:18:57;;;;;;;8.13;3.40;;;31.40;45.90;;;;;;5050005;28;19948;-66
2022/06/18 13:21:24;;;;;;;7.13;3.95;;;31.40;46.10;;;;;;5051890;28;20032;-67
2022/06/18 13:29:37;;;;;;;8.43;3.80;;;31.40;46.30;;;;;;5047138;28;20048;-67
2022/06/18 13:32:54;;;;;;;8.85;4.07;;;31.40;46.30;;;;;;5039011;28;20029;-67
2022/06/18 13:35:50;;;;;;;9.75;4.40;;;31.40;46.40;;;;;;5028157;28;20060;-68
2022/06/18 13:38:40;;;;;;;9.15;3.72;;;31.30;46.20;;;;;;5033221;28;20048;-68